createdAt,value
2017-12-26T00:00:14.790Z,18.20
2017-12-26T00:01:14.800Z,19.60
2017-12-26T00:02:14.818Z,17.00
2017-12-26T00:03:14.823Z,19.20
2017-12-26T00:04:14.835Z,19.50
2017-12-26T00:05:14.865Z,19.30
2017-12-26T00:06:14.863Z,19.10
2017-12-26T00:07:14.876Z,19.30
2017-12-26T00:08:14.881Z,19.50
2017-12-26T00:09:14.902Z,21.50
2017-12-26T00:10:14.914Z,18.70
2017-12-26T00:11:14.925Z,18.20
2017-12-26T00:12:14.946Z,21.70
2017-12-26T00:13:14.972Z,19.50
2017-12-26T00:14:14.965Z,18.60
2017-12-26T00:15:14.985Z,19.30
2017-12-26T00:16:15.045Z,22.00
2017-12-26T00:17:14.998Z,20.40
2017-12-26T00:18:15.024Z,18.90
2017-12-26T00:19:15.034Z,19.50
2017-12-26T00:20:15.042Z,20.70
2017-12-26T00:21:15.049Z,22.30
2017-12-26T00:22:15.068Z,20.60
2017-12-26T00:23:15.380Z,20.90
2017-12-26T00:24:15.085Z,22.40
2017-12-26T00:25:15.095Z,20.60
2017-12-26T00:26:15.126Z,19.50
2017-12-26T00:27:15.124Z,20.50
2017-12-26T00:28:15.138Z,20.10
2017-12-26T00:29:15.152Z,20.20
2017-12-26T00:30:15.164Z,20.50
2017-12-26T00:31:15.176Z,23.10
2017-12-26T00:32:15.180Z,20.90
2017-12-26T00:33:15.198Z,21.70
2017-12-26T00:34:15.216Z,24.20
2017-12-26T00:35:15.220Z,20.90
2017-12-26T00:36:15.236Z,23.20
2017-12-26T00:37:15.261Z,20.80
2017-12-26T00:38:15.559Z,21.70
2017-12-26T00:39:15.272Z,23.00
2017-12-26T00:40:15.277Z,21.80
2017-12-26T00:41:15.306Z,22.80
2017-12-26T00:42:15.311Z,21.20
2017-12-26T00:43:15.321Z,23.00
2017-12-26T00:44:15.333Z,23.20
2017-12-26T00:45:15.351Z,23.80
2017-12-26T00:46:15.363Z,22.40
2017-12-26T00:47:15.370Z,20.60
2017-12-26T00:48:15.379Z,23.10
2017-12-26T00:49:15.394Z,23.20
2017-12-26T00:50:15.408Z,25.40
2017-12-26T00:51:15.412Z,25.20
2017-12-26T00:52:15.426Z,23.60
2017-12-26T00:53:15.448Z,24.70
2017-12-26T00:54:15.454Z,24.30
2017-12-26T00:55:15.465Z,23.70
2017-12-26T00:56:15.469Z,24.70
2017-12-26T00:57:15.496Z,22.90
2017-12-26T00:58:15.511Z,25.70
2017-12-26T00:59:15.508Z,25.30
2017-12-26T01:00:15.523Z,23.20
2017-12-26T01:01:15.550Z,24.90
2017-12-26T01:02:15.547Z,24.80
2017-12-26T01:03:15.562Z,26.30
2017-12-26T01:04:15.565Z,27.80
2017-12-26T01:05:15.586Z,25.70
2017-12-26T01:06:15.600Z,29.70
2017-12-26T01:07:15.624Z,25.90
2017-12-26T01:08:15.618Z,26.00
2017-12-26T01:09:15.639Z,27.50
2017-12-26T01:10:15.656Z,26.50
2017-12-26T01:11:15.664Z,27.80
2017-12-26T01:12:15.673Z,27.90
2017-12-26T01:13:15.689Z,24.40
2017-12-26T01:14:15.696Z,28.60
2017-12-26T01:15:15.713Z,24.50
2017-12-26T01:16:15.710Z,26.20
2017-12-26T01:17:15.737Z,28.40
2017-12-26T01:18:16.050Z,27.10
2017-12-26T01:19:15.757Z,29.50
2017-12-26T01:20:15.776Z,27.60
2017-12-26T01:21:15.771Z,28.40
2017-12-26T01:22:15.787Z,28.40
2017-12-26T01:23:15.800Z,30.60
2017-12-26T01:24:15.812Z,27.90
2017-12-26T01:25:15.821Z,29.70
2017-12-26T01:26:15.847Z,27.50
2017-12-26T01:27:15.851Z,29.80
2017-12-26T01:28:15.865Z,27.60
2017-12-26T01:29:15.869Z,32.70
2017-12-26T01:30:15.894Z,29.10
2017-12-26T01:31:15.904Z,28.40
2017-12-26T01:32:15.912Z,28.70
2017-12-26T01:33:15.917Z,28.60
2017-12-26T01:34:15.925Z,28.80
2017-12-26T01:35:15.942Z,27.80
2017-12-26T01:36:15.954Z,29.20
2017-12-26T01:37:15.966Z,32.80
2017-12-26T01:38:15.972Z,32.20
2017-12-26T01:39:15.994Z,28.00
2017-12-26T01:40:15.998Z,30.20
2017-12-26T01:41:16.014Z,29.90
2017-12-26T01:42:16.020Z,30.60
2017-12-26T01:43:16.036Z,27.40
2017-12-26T01:44:16.057Z,27.00
2017-12-26T01:45:16.066Z,28.50
2017-12-26T01:46:16.070Z,27.10
2017-12-26T01:47:16.078Z,27.60
2017-12-26T01:48:16.401Z,30.00
2017-12-26T01:49:16.109Z,27.90
2017-12-26T01:50:16.124Z,30.30
2017-12-26T01:51:16.127Z,27.90
2017-12-26T01:52:16.141Z,31.10
2017-12-26T01:53:16.155Z,28.30
2017-12-26T01:54:16.167Z,26.90
2017-12-26T01:55:16.181Z,27.00
2017-12-26T01:56:16.185Z,28.40
2017-12-26T01:57:16.187Z,28.50
2017-12-26T01:58:16.219Z,29.60
2017-12-26T01:59:16.224Z,31.10
2017-12-26T02:00:16.234Z,28.80
2017-12-26T02:01:16.239Z,31.70
2017-12-26T02:02:16.263Z,29.80
2017-12-26T02:03:16.570Z,28.90
2017-12-26T02:04:16.278Z,31.80
2017-12-26T02:05:16.290Z,27.80
2017-12-26T02:06:16.305Z,27.70
2017-12-26T02:07:16.313Z,28.00
2017-12-26T02:08:16.326Z,26.80
2017-12-26T02:09:16.335Z,29.10
2017-12-26T02:10:16.347Z,30.70
2017-12-26T02:11:16.366Z,29.80
2017-12-26T02:12:16.370Z,29.10
2017-12-26T02:13:16.385Z,25.80
2017-12-26T02:14:16.391Z,27.90
2017-12-26T02:15:16.404Z,30.20
2017-12-26T02:16:16.409Z,29.90
2017-12-26T02:17:16.438Z,29.30
2017-12-26T02:18:16.436Z,29.90
2017-12-26T02:19:16.467Z,26.50
2017-12-26T02:20:16.456Z,28.80
2017-12-26T02:21:16.463Z,30.10
2017-12-26T02:22:16.495Z,28.50
2017-12-26T02:23:16.493Z,30.20
2017-12-26T02:24:16.519Z,29.50
2017-12-26T02:25:16.528Z,32.00
2017-12-26T02:26:16.520Z,28.40
2017-12-26T02:27:16.553Z,28.20
2017-12-26T02:28:16.850Z,29.80
2017-12-26T02:29:16.560Z,30.30
2017-12-26T02:30:16.625Z,31.90
2017-12-26T02:31:16.578Z,31.30
2017-12-26T02:32:16.603Z,29.00
2017-12-26T02:33:16.618Z,30.50
2017-12-26T02:34:16.616Z,28.60
2017-12-26T02:35:16.635Z,33.60
2017-12-26T02:36:16.641Z,28.30
2017-12-26T02:37:16.663Z,27.80
2017-12-26T02:38:16.969Z,30.30
2017-12-26T02:39:16.681Z,27.70
2017-12-26T02:40:16.694Z,28.80
2017-12-26T02:41:16.695Z,27.90
2017-12-26T02:42:16.712Z,28.30
2017-12-26T02:43:16.724Z,28.30
2017-12-26T02:44:16.732Z,25.20
2017-12-26T02:45:16.739Z,30.60
2017-12-26T02:46:16.765Z,29.90
2017-12-26T02:47:16.776Z,28.80
2017-12-26T02:48:16.782Z,30.70
2017-12-26T02:49:16.790Z,27.10
2017-12-26T02:50:16.803Z,28.10
2017-12-26T02:51:16.809Z,30.10
2017-12-26T02:52:16.825Z,29.50
2017-12-26T02:53:16.841Z,27.80
2017-12-26T02:54:16.854Z,25.20
2017-12-26T02:55:16.853Z,27.00
2017-12-26T02:56:16.866Z,29.90
2017-12-26T02:57:16.875Z,25.20
2017-12-26T02:58:16.893Z,26.30
2017-12-26T02:59:16.905Z,26.30
2017-12-26T03:00:16.914Z,27.40
2017-12-26T03:01:16.924Z,27.90
2017-12-26T03:02:16.931Z,25.30
2017-12-26T03:03:17.249Z,23.90
2017-12-26T03:04:16.962Z,27.60
2017-12-26T03:05:16.977Z,25.60
2017-12-26T03:06:16.981Z,27.90
2017-12-26T03:07:16.995Z,25.20
2017-12-26T03:08:16.994Z,25.40
2017-12-26T03:09:17.022Z,26.30
2017-12-26T03:10:17.034Z,26.50
2017-12-26T03:11:17.039Z,25.70
2017-12-26T03:12:17.052Z,24.70
2017-12-26T03:13:17.056Z,24.80
2017-12-26T03:14:17.078Z,23.20
2017-12-26T03:15:17.092Z,24.60
2017-12-26T03:16:17.088Z,26.20
2017-12-26T03:17:17.099Z,26.80
2017-12-26T03:18:17.112Z,24.90
2017-12-26T03:19:17.127Z,26.80
2017-12-26T03:20:17.141Z,22.30
2017-12-26T03:21:17.157Z,23.70
2017-12-26T03:22:17.174Z,23.10
2017-12-26T03:23:17.166Z,22.60
2017-12-26T03:24:17.200Z,24.00
2017-12-26T03:25:17.198Z,23.90
2017-12-26T03:26:17.203Z,25.00
2017-12-26T03:27:17.218Z,25.50
2017-12-26T03:28:17.221Z,24.40
2017-12-26T03:29:17.232Z,24.00
2017-12-26T03:30:17.262Z,22.20
2017-12-26T03:31:17.268Z,22.40
2017-12-26T03:32:17.274Z,24.10
2017-12-26T03:33:17.590Z,23.40
2017-12-26T03:34:17.288Z,24.10
2017-12-26T03:35:17.313Z,25.60
2017-12-26T03:36:17.317Z,22.10
2017-12-26T03:37:17.333Z,24.60
2017-12-26T03:38:17.345Z,23.50
2017-12-26T03:39:17.351Z,25.80
2017-12-26T03:40:17.365Z,25.10
2017-12-26T03:41:17.386Z,24.30
2017-12-26T03:42:17.390Z,21.30
2017-12-26T03:43:17.395Z,22.90
2017-12-26T03:44:17.411Z,27.30
2017-12-26T03:45:17.422Z,21.30
2017-12-26T03:46:17.435Z,21.90
2017-12-26T03:47:17.447Z,21.10
2017-12-26T03:48:17.454Z,20.10
2017-12-26T03:49:17.468Z,20.40
2017-12-26T03:50:17.471Z,21.40
2017-12-26T03:51:17.500Z,19.90
2017-12-26T03:52:17.497Z,24.30
2017-12-26T03:53:17.516Z,19.30
2017-12-26T03:54:17.525Z,21.70
2017-12-26T03:55:17.528Z,21.70
2017-12-26T03:56:17.537Z,21.10
2017-12-26T03:57:17.558Z,21.50
2017-12-26T03:58:17.581Z,22.20
2017-12-26T03:59:17.577Z,20.30
2017-12-26T04:00:17.587Z,21.80
2017-12-26T04:01:17.590Z,21.10
2017-12-26T04:02:17.621Z,20.40
2017-12-26T04:03:17.920Z,20.90
2017-12-26T04:04:17.634Z,18.90
2017-12-26T04:05:17.648Z,19.60
2017-12-26T04:06:17.646Z,18.70
2017-12-26T04:07:17.678Z,18.50
2017-12-26T04:08:17.684Z,20.40
2017-12-26T04:09:17.686Z,19.80
2017-12-26T04:10:17.706Z,19.40
2017-12-26T04:11:17.711Z,20.50
2017-12-26T04:12:17.722Z,21.20
2017-12-26T04:13:17.737Z,19.70
2017-12-26T04:14:17.743Z,19.00
2017-12-26T04:15:17.775Z,21.50
2017-12-26T04:16:17.760Z,20.10
2017-12-26T04:17:17.769Z,21.10
2017-12-26T04:18:18.095Z,19.40
2017-12-26T04:19:17.806Z,25.00
2017-12-26T04:20:17.825Z,20.50
2017-12-26T04:21:17.828Z,21.70
2017-12-26T04:22:17.832Z,22.60
2017-12-26T04:23:17.840Z,22.20
2017-12-26T04:24:17.857Z,21.50
2017-12-26T04:25:17.872Z,20.70
2017-12-26T04:26:17.878Z,23.10
2017-12-26T04:27:17.883Z,22.30
2017-12-26T04:28:17.903Z,18.60
2017-12-26T04:29:17.917Z,21.10
2017-12-26T04:30:17.923Z,20.00
2017-12-26T04:31:17.934Z,19.30
2017-12-26T04:32:17.946Z,19.90
2017-12-26T04:33:17.956Z,21.00
2017-12-26T04:34:17.963Z,22.40
2017-12-26T04:35:17.981Z,19.40
2017-12-26T04:36:17.992Z,21.20
2017-12-26T04:37:18.002Z,23.20
2017-12-26T04:38:18.305Z,19.80
2017-12-26T04:39:18.028Z,20.90
2017-12-26T04:40:18.036Z,20.70
2017-12-26T04:41:18.052Z,20.90
2017-12-26T04:42:18.058Z,21.20
2017-12-26T04:43:18.063Z,19.00
2017-12-26T04:44:18.076Z,19.10
2017-12-26T04:45:18.104Z,20.60
2017-12-26T04:46:18.102Z,21.40
2017-12-26T04:47:18.114Z,20.80
2017-12-26T04:48:18.126Z,19.90
2017-12-26T04:49:18.128Z,20.80
2017-12-26T04:50:18.166Z,22.20
2017-12-26T04:51:18.159Z,19.10
2017-12-26T04:52:18.180Z,21.10
2017-12-26T04:53:18.184Z,22.20
2017-12-26T04:54:18.186Z,20.60
2017-12-26T04:55:18.199Z,20.80
2017-12-26T04:56:18.204Z,22.30
2017-12-26T04:57:18.224Z,21.70
2017-12-26T04:58:18.538Z,20.50
2017-12-26T04:59:18.249Z,20.60
2017-12-26T05:00:18.255Z,22.20
2017-12-26T05:01:18.271Z,22.40
2017-12-26T05:02:18.282Z,20.60
2017-12-26T05:03:18.295Z,23.90
2017-12-26T05:04:18.308Z,22.40
2017-12-26T05:05:18.311Z,21.50
2017-12-26T05:06:18.328Z,22.20
2017-12-26T05:07:18.338Z,23.20
2017-12-26T05:08:18.353Z,23.00
2017-12-26T05:09:18.360Z,23.00
2017-12-26T05:10:18.369Z,21.70
2017-12-26T05:11:18.379Z,23.40
2017-12-26T05:12:18.384Z,20.40
2017-12-26T05:13:18.411Z,21.20
2017-12-26T05:14:18.417Z,21.80
2017-12-26T05:15:18.429Z,22.50
2017-12-26T05:16:18.435Z,20.10
2017-12-26T05:17:18.445Z,20.80
2017-12-26T05:18:18.450Z,21.60
2017-12-26T05:19:18.474Z,22.60
2017-12-26T05:20:18.486Z,22.00
2017-12-26T05:21:18.495Z,23.30
2017-12-26T05:22:18.508Z,21.90
2017-12-26T05:23:18.513Z,22.00
2017-12-26T05:24:18.520Z,20.70
2017-12-26T05:25:18.547Z,22.60
2017-12-26T05:26:18.551Z,23.60
2017-12-26T05:27:18.564Z,24.90
2017-12-26T05:28:18.569Z,22.20
2017-12-26T05:29:18.577Z,22.80
2017-12-26T05:30:18.598Z,23.10
2017-12-26T05:31:18.614Z,23.20
2017-12-26T05:32:18.611Z,23.30
2017-12-26T05:33:18.938Z,22.00
2017-12-26T05:34:18.633Z,21.30
2017-12-26T05:35:18.638Z,24.00
2017-12-26T05:36:18.663Z,22.50
2017-12-26T05:37:18.672Z,24.30
2017-12-26T05:38:18.984Z,27.30
2017-12-26T05:39:18.690Z,20.00
2017-12-26T05:40:18.701Z,24.00
2017-12-26T05:41:18.705Z,20.20
2017-12-26T05:42:18.729Z,21.90
2017-12-26T05:43:18.733Z,23.50
2017-12-26T05:44:18.747Z,25.60
2017-12-26T05:45:18.761Z,23.80
2017-12-26T05:46:18.760Z,22.40
2017-12-26T05:47:18.777Z,19.90
2017-12-26T05:48:18.796Z,23.30
2017-12-26T05:49:18.799Z,25.00
2017-12-26T05:50:18.820Z,25.80
2017-12-26T05:51:18.818Z,21.50
2017-12-26T05:52:18.837Z,23.50
2017-12-26T05:53:18.840Z,25.40
2017-12-26T05:54:18.863Z,22.90
2017-12-26T05:55:18.888Z,24.70
2017-12-26T05:56:18.874Z,24.20
2017-12-26T05:57:18.883Z,24.20
2017-12-26T05:58:19.208Z,23.60
2017-12-26T05:59:18.912Z,24.70
2017-12-26T06:00:18.939Z,23.60
2017-12-26T06:01:18.935Z,23.40
2017-12-26T06:02:18.947Z,24.30
2017-12-26T06:03:18.952Z,22.90
2017-12-26T06:04:18.977Z,23.80
2017-12-26T06:05:18.968Z,24.10
2017-12-26T06:06:18.992Z,22.70
2017-12-26T06:07:18.996Z,22.70
2017-12-26T06:08:19.011Z,22.00
2017-12-26T06:09:19.037Z,21.10
2017-12-26T06:10:19.030Z,24.70
2017-12-26T06:11:19.041Z,22.40
2017-12-26T06:12:19.061Z,22.40
2017-12-26T06:13:19.063Z,24.60
2017-12-26T06:14:19.076Z,24.20
2017-12-26T06:15:19.081Z,22.00
2017-12-26T06:16:19.093Z,22.30
2017-12-26T06:17:19.103Z,22.70
2017-12-26T06:18:19.119Z,22.90
2017-12-26T06:19:19.142Z,23.90
2017-12-26T06:20:19.146Z,21.70
2017-12-26T06:21:19.153Z,22.50
2017-12-26T06:22:19.160Z,23.80
2017-12-26T06:23:19.173Z,22.90
2017-12-26T06:24:19.190Z,24.00
2017-12-26T06:25:19.206Z,23.30
2017-12-26T06:26:19.204Z,24.10
2017-12-26T06:27:19.216Z,22.90
2017-12-26T06:28:19.286Z,22.20
2017-12-26T06:29:19.230Z,20.40
2017-12-26T06:30:19.255Z,22.20
2017-12-26T06:31:19.260Z,21.70
2017-12-26T06:32:19.274Z,22.20
2017-12-26T06:33:19.534Z,22.20
2017-12-26T06:34:19.287Z,22.80
2017-12-26T06:35:19.302Z,21.00
2017-12-26T06:36:19.325Z,19.10
2017-12-26T06:37:19.328Z,22.20
2017-12-26T06:38:19.339Z,21.20
2017-12-26T06:39:19.344Z,21.80
2017-12-26T06:40:19.363Z,22.30
2017-12-26T06:41:19.367Z,23.20
2017-12-26T06:42:19.392Z,21.30
2017-12-26T06:43:19.404Z,21.00
2017-12-26T06:44:19.401Z,23.00
2017-12-26T06:45:19.409Z,20.70
2017-12-26T06:46:19.431Z,19.70
2017-12-26T06:47:19.435Z,19.40
2017-12-26T06:48:19.457Z,23.00
2017-12-26T06:49:19.462Z,20.90
2017-12-26T06:50:19.482Z,21.00
2017-12-26T06:51:19.480Z,22.80
2017-12-26T06:52:19.491Z,21.30
2017-12-26T06:53:19.494Z,20.80
2017-12-26T06:54:19.529Z,22.70
2017-12-26T06:55:19.525Z,20.10
2017-12-26T06:56:19.544Z,19.30
2017-12-26T06:57:19.546Z,21.10
2017-12-26T06:58:19.851Z,23.80
2017-12-26T06:59:19.570Z,22.00
2017-12-26T07:00:19.581Z,20.50
2017-12-26T07:01:19.596Z,21.30
2017-12-26T07:02:19.603Z,19.00
2017-12-26T07:03:19.613Z,23.00
2017-12-26T07:04:19.628Z,22.40
2017-12-26T07:05:19.629Z,19.50
2017-12-26T07:06:19.646Z,20.10
2017-12-26T07:07:19.659Z,19.30
2017-12-26T07:08:19.670Z,20.50
2017-12-26T07:09:19.675Z,20.40
2017-12-26T07:10:19.687Z,19.80
2017-12-26T07:11:19.710Z,21.30
2017-12-26T07:12:19.723Z,19.30
2017-12-26T07:13:19.732Z,21.80
2017-12-26T07:14:19.737Z,21.90
2017-12-26T07:15:19.743Z,21.90
2017-12-26T07:16:19.749Z,19.40
2017-12-26T07:17:19.776Z,20.90
2017-12-26T07:18:20.082Z,21.60
2017-12-26T07:19:19.794Z,21.10
2017-12-26T07:20:19.801Z,20.00
2017-12-26T07:21:19.815Z,21.00
2017-12-26T07:22:19.825Z,21.60
2017-12-26T07:23:19.846Z,18.30
2017-12-26T07:24:19.844Z,18.30
2017-12-26T07:25:19.853Z,19.30
2017-12-26T07:26:19.872Z,20.70
2017-12-26T07:27:19.884Z,19.90
2017-12-26T07:28:19.904Z,19.60
2017-12-26T07:29:19.905Z,20.20
2017-12-26T07:30:19.917Z,20.30
2017-12-26T07:31:19.930Z,19.70
2017-12-26T07:32:19.935Z,21.40
2017-12-26T07:33:19.949Z,18.00
2017-12-26T07:34:19.962Z,18.90
2017-12-26T07:35:19.973Z,19.80
2017-12-26T07:36:19.999Z,18.60
2017-12-26T07:37:19.990Z,19.00
2017-12-26T07:38:20.015Z,20.40
2017-12-26T07:39:20.016Z,21.30
2017-12-26T07:40:20.028Z,21.10
2017-12-26T07:41:20.038Z,17.90
2017-12-26T07:42:20.043Z,21.30
2017-12-26T07:43:20.074Z,20.70
2017-12-26T07:44:20.085Z,20.70
2017-12-26T07:45:20.081Z,21.20
2017-12-26T07:46:20.101Z,21.30
2017-12-26T07:47:20.100Z,21.50
2017-12-26T07:48:20.430Z,20.80
2017-12-26T07:49:20.134Z,21.60
2017-12-26T07:50:20.139Z,20.10
2017-12-26T07:51:20.150Z,19.10
2017-12-26T07:52:20.157Z,22.00
2017-12-26T07:53:20.178Z,20.60
2017-12-26T07:54:20.190Z,18.00
2017-12-26T07:55:20.195Z,21.10
2017-12-26T07:56:20.215Z,18.80
2017-12-26T07:57:20.242Z,20.60
2017-12-26T07:58:20.234Z,21.20
2017-12-26T07:59:20.246Z,17.20
2017-12-26T08:00:20.258Z,19.20
2017-12-26T08:01:20.273Z,20.80
2017-12-26T08:02:20.287Z,21.30
2017-12-26T08:03:20.297Z,18.60
2017-12-26T08:04:20.305Z,18.90
2017-12-26T08:05:20.320Z,19.10
2017-12-26T08:06:20.330Z,19.50
2017-12-26T08:07:20.345Z,21.50
2017-12-26T08:08:20.348Z,20.80
2017-12-26T08:09:20.364Z,20.20
2017-12-26T08:10:20.377Z,19.50
2017-12-26T08:11:20.393Z,20.20
2017-12-26T08:12:20.400Z,20.60
2017-12-26T08:13:20.411Z,20.90
2017-12-26T08:14:20.415Z,20.60
2017-12-26T08:15:20.427Z,19.80
2017-12-26T08:16:20.444Z,18.40
2017-12-26T08:17:20.453Z,21.50
2017-12-26T08:18:20.467Z,18.20
2017-12-26T08:19:20.477Z,19.10
2017-12-26T08:20:20.497Z,19.00
2017-12-26T08:21:20.509Z,17.80
2017-12-26T08:22:20.517Z,17.10
2017-12-26T08:23:20.523Z,18.80
2017-12-26T08:24:20.529Z,17.80
2017-12-26T08:25:20.556Z,18.10
2017-12-26T08:26:20.562Z,18.10
2017-12-26T08:27:20.567Z,19.30
2017-12-26T08:28:20.580Z,20.10
2017-12-26T08:29:20.601Z,21.10
2017-12-26T08:30:20.607Z,19.50
2017-12-26T08:31:20.625Z,19.00
2017-12-26T08:32:20.631Z,19.00
2017-12-26T08:33:20.651Z,22.10
2017-12-26T08:34:20.666Z,18.40
2017-12-26T08:35:20.666Z,19.70
2017-12-26T08:36:20.683Z,19.30
2017-12-26T08:37:20.693Z,18.60
2017-12-26T08:38:20.703Z,18.50
2017-12-26T08:39:20.715Z,17.40
2017-12-26T08:40:20.727Z,19.20
2017-12-26T08:41:20.731Z,19.40
2017-12-26T08:42:20.762Z,17.80
2017-12-26T08:43:21.059Z,19.10
2017-12-26T08:44:20.773Z,20.30
2017-12-26T08:45:20.782Z,20.90
2017-12-26T08:46:20.799Z,17.90
2017-12-26T08:47:20.811Z,19.40
2017-12-26T08:48:20.815Z,18.90
2017-12-26T08:49:20.826Z,18.80
2017-12-26T08:50:20.852Z,18.00
2017-12-26T08:51:20.854Z,19.80
2017-12-26T08:52:20.868Z,17.70
2017-12-26T08:53:20.877Z,17.80
2017-12-26T08:54:20.894Z,21.20
2017-12-26T08:55:20.914Z,16.70
2017-12-26T08:56:20.924Z,18.20
2017-12-26T08:57:20.921Z,18.40
2017-12-26T08:58:21.252Z,19.30
2017-12-26T08:59:20.951Z,18.40
2017-12-26T09:00:20.972Z,19.00
2017-12-26T09:01:20.973Z,19.20
2017-12-26T09:02:20.992Z,18.70
2017-12-26T09:03:21.010Z,20.50
2017-12-26T09:04:21.016Z,18.70
2017-12-26T09:05:21.018Z,17.90
2017-12-26T09:06:21.049Z,18.00
2017-12-26T09:07:21.048Z,19.20
2017-12-26T09:08:21.068Z,18.90
2017-12-26T09:09:21.083Z,17.70
2017-12-26T09:10:21.094Z,18.40
2017-12-26T09:11:21.100Z,18.70
2017-12-26T09:12:21.105Z,18.40
2017-12-26T09:13:21.120Z,17.80
2017-12-26T09:14:21.140Z,19.70
2017-12-26T09:15:21.150Z,17.50
2017-12-26T09:16:21.158Z,18.40
2017-12-26T09:17:21.166Z,18.00
2017-12-26T09:18:21.221Z,17.20
2017-12-26T09:19:21.196Z,18.20
2017-12-26T09:20:21.208Z,18.80
2017-12-26T09:21:21.211Z,18.50
2017-12-26T09:22:21.235Z,17.20
2017-12-26T09:23:21.239Z,17.90
2017-12-26T09:24:21.260Z,19.50
2017-12-26T09:25:21.280Z,19.70
2017-12-26T09:26:21.286Z,17.60
2017-12-26T09:27:21.296Z,19.60
2017-12-26T09:28:21.304Z,21.60
2017-12-26T09:29:21.317Z,17.30
2017-12-26T09:30:21.346Z,18.70
2017-12-26T09:31:21.342Z,17.40
2017-12-26T09:32:21.361Z,17.10
2017-12-26T09:33:21.381Z,17.90
2017-12-26T09:34:21.382Z,18.20
2017-12-26T09:35:21.391Z,16.80
2017-12-26T09:36:21.415Z,18.60
2017-12-26T09:37:21.414Z,16.10
2017-12-26T09:38:21.434Z,18.30
2017-12-26T09:39:21.445Z,17.90
2017-12-26T09:40:21.457Z,16.40
2017-12-26T09:41:21.467Z,19.00
2017-12-26T09:42:21.473Z,17.10
2017-12-26T09:43:21.798Z,20.20
2017-12-26T09:44:21.508Z,16.40
2017-12-26T09:45:21.511Z,17.70
2017-12-26T09:46:21.549Z,17.60
2017-12-26T09:47:21.552Z,17.40
2017-12-26T09:48:21.550Z,16.10
2017-12-26T09:49:21.584Z,17.00
2017-12-26T09:50:21.586Z,17.30
2017-12-26T09:51:21.588Z,16.30
2017-12-26T09:52:21.615Z,17.90
2017-12-26T09:53:21.623Z,16.60
2017-12-26T09:54:21.647Z,15.90
2017-12-26T09:55:21.663Z,16.10
2017-12-26T09:56:21.659Z,15.80
2017-12-26T09:57:21.667Z,16.90
2017-12-26T09:58:21.700Z,16.20
2017-12-26T09:59:21.697Z,14.30
2017-12-26T10:00:21.719Z,16.20
2017-12-26T10:01:21.732Z,15.00
2017-12-26T10:02:21.744Z,15.50
2017-12-26T10:03:21.756Z,16.90
2017-12-26T10:04:21.767Z,13.90
2017-12-26T10:05:21.775Z,15.00
2017-12-26T10:06:21.794Z,14.90
2017-12-26T10:07:21.812Z,14.20
2017-12-26T10:08:21.819Z,16.20
2017-12-26T10:09:21.828Z,15.20
2017-12-26T10:10:21.846Z,13.90
2017-12-26T10:11:21.865Z,12.80
2017-12-26T10:12:21.864Z,12.00
2017-12-26T10:13:21.885Z,13.90
2017-12-26T10:14:21.899Z,13.10
2017-12-26T10:15:21.910Z,11.10
2017-12-26T10:16:21.928Z,14.10
2017-12-26T10:17:21.935Z,12.40
2017-12-26T10:18:21.953Z,13.80
2017-12-26T10:19:21.967Z,12.20
2017-12-26T10:20:21.972Z,12.60
2017-12-26T10:21:22.000Z,11.50
2017-12-26T10:22:22.007Z,11.90
2017-12-26T10:23:22.011Z,14.30
2017-12-26T10:24:22.044Z,13.00
2017-12-26T10:25:22.057Z,10.40
2017-12-26T10:26:22.063Z,9.90
2017-12-26T10:27:22.077Z,11.70
2017-12-26T10:28:22.087Z,13.20
2017-12-26T10:29:22.104Z,12.10
2017-12-26T10:30:22.116Z,11.00
2017-12-26T10:31:22.122Z,11.50
2017-12-26T10:32:22.152Z,10.80
2017-12-26T10:33:22.163Z,9.50
2017-12-26T10:34:22.178Z,10.20
2017-12-26T10:35:22.184Z,9.60
2017-12-26T10:36:22.197Z,9.50
2017-12-26T10:37:22.211Z,9.90
2017-12-26T10:38:22.524Z,10.00
2017-12-26T10:39:22.248Z,11.90
2017-12-26T10:40:22.260Z,11.60
2017-12-26T10:41:22.275Z,9.70
2017-12-26T10:42:22.288Z,10.30
2017-12-26T10:43:22.314Z,10.50
2017-12-26T10:44:22.311Z,12.20
2017-12-26T10:45:22.319Z,8.70
2017-12-26T10:46:22.345Z,9.40
2017-12-26T10:47:22.350Z,9.50
2017-12-26T10:48:22.378Z,9.80
2017-12-26T10:49:22.386Z,8.80
2017-12-26T10:50:22.408Z,9.30
2017-12-26T10:51:22.415Z,9.00
2017-12-26T10:52:22.432Z,9.40
2017-12-26T10:53:22.441Z,10.10
2017-12-26T10:54:22.461Z,8.60
2017-12-26T10:55:22.477Z,8.40
2017-12-26T10:56:22.502Z,8.10
2017-12-26T10:57:22.512Z,8.60
2017-12-26T10:58:22.517Z,10.10
2017-12-26T10:59:22.542Z,9.40
2017-12-26T11:00:22.547Z,9.50
2017-12-26T11:01:22.568Z,8.50
2017-12-26T11:02:22.575Z,8.00
2017-12-26T11:03:22.588Z,9.40
2017-12-26T11:04:22.605Z,8.80
2017-12-26T11:05:22.622Z,7.00
2017-12-26T11:06:22.637Z,7.90
2017-12-26T11:07:22.645Z,8.50
2017-12-26T11:08:22.668Z,8.00
2017-12-26T11:09:22.683Z,7.80
2017-12-26T11:10:22.705Z,8.70
2017-12-26T11:11:22.702Z,8.30
2017-12-26T11:12:22.733Z,6.80
2017-12-26T11:13:23.041Z,6.50
2017-12-26T11:14:22.753Z,8.20
2017-12-26T11:15:22.784Z,6.90
2017-12-26T11:16:22.783Z,8.30
2017-12-26T11:17:22.798Z,6.70
2017-12-26T11:18:22.816Z,7.60
2017-12-26T11:19:22.828Z,8.70
2017-12-26T11:20:22.847Z,7.50
2017-12-26T11:21:22.857Z,6.00
2017-12-26T11:22:22.874Z,6.80
2017-12-26T11:23:22.887Z,6.70
2017-12-26T11:24:22.905Z,7.60
2017-12-26T11:25:22.920Z,6.90
2017-12-26T11:26:22.938Z,6.90
2017-12-26T11:27:22.951Z,7.20
2017-12-26T11:28:22.968Z,5.90
2017-12-26T11:29:22.979Z,5.80
2017-12-26T11:30:22.997Z,7.50
2017-12-26T11:31:23.027Z,5.40
2017-12-26T11:32:23.031Z,7.60
2017-12-26T11:33:23.059Z,6.00
2017-12-26T11:34:23.066Z,6.20
2017-12-26T11:35:23.077Z,6.50
2017-12-26T11:36:23.091Z,7.30
2017-12-26T11:37:23.118Z,7.50
2017-12-26T11:38:23.115Z,8.70
2017-12-26T11:39:23.141Z,6.20
2017-12-26T11:40:23.153Z,5.70
2017-12-26T11:41:23.173Z,6.60
2017-12-26T11:42:23.199Z,8.20
2017-12-26T11:43:23.498Z,6.90
2017-12-26T11:44:23.230Z,7.20
2017-12-26T11:45:23.238Z,4.90
2017-12-26T11:46:23.256Z,6.80
2017-12-26T11:47:23.266Z,7.90
2017-12-26T11:48:23.287Z,8.00
2017-12-26T11:49:23.297Z,7.20
2017-12-26T11:50:23.333Z,5.20
2017-12-26T11:51:23.332Z,6.50
2017-12-26T11:52:23.344Z,6.60
2017-12-26T11:53:23.376Z,6.00
2017-12-26T11:54:23.371Z,7.40
2017-12-26T11:55:23.398Z,5.70
2017-12-26T11:56:23.418Z,5.40
2017-12-26T11:57:23.427Z,6.10
2017-12-26T11:58:24.294Z,5.00
2017-12-26T11:59:23.463Z,8.30
2017-12-26T12:00:23.480Z,5.10
2017-12-26T12:01:23.497Z,5.70
2017-12-26T12:02:23.514Z,5.00
2017-12-26T12:03:23.527Z,5.60
2017-12-26T12:04:23.545Z,4.20
2017-12-26T12:05:23.560Z,4.50
2017-12-26T12:06:23.577Z,4.30
2017-12-26T12:07:23.597Z,5.70
2017-12-26T12:08:23.608Z,5.30
2017-12-26T12:09:23.629Z,5.00
2017-12-26T12:10:23.642Z,5.20
2017-12-26T12:11:23.665Z,5.10
2017-12-26T12:12:23.684Z,4.00
2017-12-26T12:13:23.700Z,5.00
2017-12-26T12:14:23.717Z,4.80
2017-12-26T12:15:23.744Z,5.30
2017-12-26T12:16:23.742Z,4.80
2017-12-26T12:17:23.769Z,7.30
2017-12-26T12:18:24.095Z,5.60
2017-12-26T12:19:23.800Z,5.00
2017-12-26T12:20:23.819Z,5.60
2017-12-26T12:21:23.846Z,6.90
2017-12-26T12:22:23.843Z,5.40
2017-12-26T12:23:23.877Z,5.10
2017-12-26T12:24:23.887Z,5.90
2017-12-26T12:25:23.903Z,5.30
2017-12-26T12:26:23.928Z,4.80
2017-12-26T12:27:23.938Z,5.10
2017-12-26T12:28:23.952Z,4.10
2017-12-26T12:29:23.980Z,4.60
2017-12-26T12:30:23.990Z,4.90
2017-12-26T12:31:24.020Z,3.50
2017-12-26T12:32:24.028Z,6.80
2017-12-26T12:33:24.045Z,7.40
2017-12-26T12:34:24.068Z,5.90
2017-12-26T12:35:24.079Z,4.20
2017-12-26T12:36:24.098Z,6.40
2017-12-26T12:37:24.126Z,4.90
2017-12-26T12:38:24.130Z,5.40
2017-12-26T12:39:24.152Z,5.10
2017-12-26T12:40:24.167Z,5.10
2017-12-26T12:41:24.183Z,4.70
2017-12-26T12:42:24.209Z,4.70
2017-12-26T12:43:24.224Z,6.50
2017-12-26T12:44:24.250Z,4.80
2017-12-26T12:45:24.252Z,6.10
2017-12-26T12:46:24.277Z,5.50
2017-12-26T12:47:24.303Z,5.10
2017-12-26T12:48:24.307Z,5.30
2017-12-26T12:49:24.328Z,6.00
2017-12-26T12:50:24.354Z,4.40
2017-12-26T12:51:24.371Z,5.90
2017-12-26T12:52:24.383Z,4.70
2017-12-26T12:53:24.705Z,4.80
2017-12-26T12:54:24.417Z,6.20
2017-12-26T12:55:24.428Z,4.60
2017-12-26T12:56:24.453Z,5.50
2017-12-26T12:57:24.468Z,7.10